Time;durP1;ratioP1;P1;durP2;ratioP2;P2;SDS_P1;SDS_P2;PMS_P1;PMS_P2;Temp;Humidity;BMP_temperature;BMP_pressure;BME280_temperature;BME280_humidity;BME280_pressure;Samples;Min_cycle;Max_cycle;Signal;HPM_P1;HPM_P2
2021/09/04 15:29:22;;;;;;;;;;;;;;;23.75;54.03;101973.25;7225817;19;172969;-77
2021/09/04 16:26:37;;;;;;;3.40;3.08;;;;;;;23.52;55.15;101965.75;4947410;27;20605;-76
2021/09/04 16:29:02;;;;;;;4.30;3.25;;;;;;;23.44;55.00;101972.84;5007599;28;20629;-75
2021/09/04 16:31:28;;;;;;;4.80;3.08;;;;;;;23.40;55.48;101967.69;5026545;28;20210;-77
2021/09/04 16:33:53;;;;;;;5.63;3.00;;;;;;;23.48;55.21;101964.06;5010144;28;20197;-75
2021/09/04 16:36:19;;;;;;;3.47;2.92;;;;;;;23.82;54.08;101961.78;5009326;28;20191;-76
2021/09/04 16:38:44;;;;;;;3.88;3.00;;;;;;;24.08;53.91;101963.06;5011316;28;20187;-76
2021/09/04 16:41:10;;;;;;;3.38;3.05;;;;;;;24.32;52.75;101961.78;5024100;28;20202;-75
2021/09/04 16:43:52;;;;;;;6.25;3.67;;;;;;;24.57;52.08;101965.63;5115309;27;20633;-65
2021/09/04 16:46:18;;;;;;;6.88;3.15;;;;;;;24.49;52.23;101963.16;5125611;27;20199;-64
2021/09/04 16:48:43;;;;;;;4.13;3.00;;;;;;;24.39;52.43;101969.47;5126798;27;20201;-66
2021/09/04 16:51:08;;;;;;;3.47;2.90;;;;;;;25.01;51.24;101971.69;5116300;27;20295;-68
2021/09/04 16:53:34;;;;;;;6.17;3.33;;;;;;;25.12;50.50;101977.59;5104996;28;20738;-67
2021/09/04 16:55:59;;;;;;;4.30;2.90;;;;;;;25.08;50.85;101978.56;5106248;28;20199;-71
2021/09/04 16:58:25;;;;;;;4.47;2.90;;;;;;;25.03;51.00;101985.66;5105896;28;20194;-69
2021/09/04 17:00:50;;;;;;;4.50;3.00;;;;;;;24.93;50.95;101984.13;5105980;28;20203;-70
2021/09/04 17:03:15;;;;;;;4.20;3.00;;;;;;;24.74;51.28;101979.28;5105472;28;20298;-69
2021/09/04 17:05:41;;;;;;;5.13;3.03;;;;;;;24.68;51.61;101984.66;5106004;28;20290;-71
2021/09/04 17:08:06;;;;;;;5.20;3.53;;;;;;;24.55;51.11;101981.41;5048546;28;20272;-69
2021/09/04 17:10:32;;;;;;;6.30;4.47;;;;;;;24.45;51.16;101985.06;5067807;28;20308;-70
2021/09/04 17:12:58;;;;;;;5.97;4.40;;;;;;;24.44;51.96;101993.81;5081117;28;20193;-68
2021/09/04 17:15:23;;;;;;;8.87;5.17;;;;;;;24.37;51.10;101988.75;5079635;28;20181;-68
2021/09/04 17:17:49;;;;;;;6.30;4.40;;;;;;;24.38;51.87;101987.84;5066214;28;20816;-68
2021/09/04 17:20:14;;;;;;;5.83;4.33;;;;;;;24.25;52.31;101994.19;5087349;28;20204;-69
2021/09/04 17:22:39;;;;;;;6.60;4.30;;;;;;;24.24;51.53;101992.47;5074430;28;20897;-66
2021/09/04 17:25:05;;;;;;;5.47;4.13;;;;;;;24.13;51.85;101997.88;5055501;28;20232;-68
2021/09/04 17:27:31;;;;;;;7.00;4.47;;;;;;;24.10;52.23;102000.59;5072423;28;20193;-69
2021/09/04 17:29:56;;;;;;;6.47;4.37;;;;;;;24.05;52.50;102004.16;5092503;28;20299;-67
2021/09/04 17:32:21;;;;;;;8.10;4.97;;;;;;;24.03;52.49;102003.34;5075100;28;20200;-70
2021/09/04 17:34:47;;;;;;;9.43;4.63;;;;;;;23.97;52.57;102000.81;5074593;28;20201;-69
2021/09/04 17:37:12;;;;;;;8.27;5.20;;;;;;;23.89;52.82;102005.28;5083607;28;20190;-69
2021/09/04 17:39:37;;;;;;;8.27;5.27;;;;;;;24.16;52.42;101999.59;5079247;28;20225;-71
2021/09/04 17:42:03;;;;;;;8.03;5.87;;;;;;;24.47;51.27;102011.25;5074202;28;20425;-70
2021/09/04 17:46:45;;;;;;;10.63;7.03;;;;;;;20.28;59.02;102036.22;5060893;28;20581;-80
2021/09/04 17:49:10;;;;;;;12.10;7.20;;;;;;;19.73;60.44;102042.22;5054950;28;20204;-82
2021/09/04 17:51:36;;;;;;;12.47;7.80;;;;;;;19.44;61.44;102034.38;5033066;28;20235;-80
2021/09/04 17:54:01;;;;;;;11.27;9.00;;;;;;;19.32;62.25;102042.16;4978412;28;20235;-81
2021/09/04 17:56:26;;;;;;;14.60;8.10;;;;;;;19.14;62.95;102049.84;4995785;28;20188;-81
2021/09/04 17:58:52;;;;;;;12.10;7.87;;;;;;;19.08;63.33;102048.94;4995257;28;20219;-82
2021/09/04 18:01:17;;;;;;;13.90;8.57;;;;;;;18.98;64.18;102050.63;4996689;28;20216;-81
2021/09/04 18:03:42;;;;;;;14.83;8.60;;;;;;;18.92;64.10;102047.13;4993556;28;20548;-81
2021/09/04 18:06:08;;;;;;;12.50;8.40;;;;;;;18.94;64.26;102055.81;4991421;28;20235;-80
2021/09/04 18:08:33;;;;;;;13.77;9.00;;;;;;;18.84;64.93;102059.22;4984350;28;20245;-82
2021/09/04 18:10:58;;;;;;;14.03;8.53;;;;;;;18.73;64.69;102063.47;5021309;28;20341;-80
2021/09/04 18:13:24;;;;;;;11.97;8.97;;;;;;;18.63;65.43;102056.50;5023231;28;20187;-80
2021/09/04 18:15:49;;;;;;;11.67;9.30;;;;;;;18.59;65.31;102067.72;5013874;28;20643;-82
2021/09/04 18:18:15;;;;;;;11.93;8.30;;;;;;;18.49;65.78;102081.50;5031642;28;20194;-84
2021/09/04 18:20:40;;;;;;;11.03;8.30;;;;;;;18.38;66.35;102081.41;5026727;28;20234;-81
2021/09/04 18:23:05;;;;;;;13.50;8.57;;;;;;;18.37;66.30;102078.81;5003037;28;20286;-80
2021/09/04 18:25:31;;;;;;;12.77;8.30;;;;;;;18.30;66.40;102088.25;5010806;28;20571;-80
2021/09/04 18:27:57;;;;;;;14.67;8.93;;;;;;;18.15;66.84;102089.84;5012009;28;20207;-82
2021/09/04 18:30:22;;;;;;;14.50;9.13;;;;;;;18.06;67.73;102098.38;5021551;28;20733;-81
2021/09/04 18:32:47;;;;;;;15.40;9.33;;;;;;;18.04;67.58;102091.44;5031396;28;20205;-81
2021/09/04 18:35:13;;;;;;;13.43;9.03;;;;;;;17.91;67.81;102100.84;5013885;28;20183;-81
2021/09/04 18:37:38;;;;;;;17.77;9.43;;;;;;;17.79;68.23;102102.44;5025517;28;20207;-81
2021/09/04 18:40:05;;;;;;;15.83;9.40;;;;;;;17.89;68.24;102112.94;5012241;28;20239;-81
2021/09/04 18:42:30;;;;;;;12.87;8.93;;;;;;;17.87;68.12;102113.78;5010668;28;20183;-80
2021/09/04 18:44:55;;;;;;;17.40;9.73;;;;;;;17.77;68.50;102104.19;4990160;28;20211;-81
2021/09/04 18:47:21;;;;;;;15.47;9.73;;;;;;;17.74;68.77;102112.75;4990034;28;20200;-80
2021/09/04 18:49:46;;;;;;;16.50;9.43;;;;;;;17.66;68.92;102114.41;4989214;28;20222;-80
2021/09/04 18:52:12;;;;;;;14.90;9.33;;;;;;;17.62;69.53;102123.00;5006486;28;20578;-81
2021/09/04 18:54:39;;;;;;;15.17;9.77;;;;;;;17.47;70.71;102122.84;4990288;28;20200;-80
2021/09/04 18:57:04;;;;;;;16.23;9.47;;;;;;;17.41;70.06;102124.47;4984818;28;20189;-81
2021/09/04 18:59:30;;;;;;;14.30;9.47;;;;;;;17.36;70.47;102120.94;4994424;28;20557;-81
2021/09/04 19:01:55;;;;;;;14.43;9.40;;;;;;;17.25;71.22;102119.91;4983080;28;20290;-82
2021/09/04 19:04:21;;;;;;;16.40;9.53;;;;;;;17.20;71.47;102127.63;4998296;28;20184;-81
2021/09/04 19:06:47;;;;;;;15.90;8.73;;;;;;;17.12;71.81;102126.66;4989343;28;20244;-81
2021/09/04 19:09:13;;;;;;;15.57;9.40;;;;;;;17.12;71.77;102129.25;4981727;28;20279;-81
2021/09/04 19:11:39;;;;;;;13.23;9.30;;;;;;;17.15;72.21;102134.47;4997224;28;20211;-80
2021/09/04 19:14:05;;;;;;;13.47;9.47;;;;;;;17.10;72.45;102140.44;4998562;28;20180;-84
2021/09/04 19:16:31;;;;;;;12.97;8.33;;;;;;;17.07;71.97;102137.78;5005133;28;20183;-81
2021/09/04 19:18:56;;;;;;;16.30;9.63;;;;;;;17.00;72.22;102141.16;5018409;28;20230;-82
2021/09/04 19:21:22;;;;;;;17.20;10.37;;;;;;;16.97;72.48;102144.56;5018028;28;20790;-83
2021/09/04 19:23:47;;;;;;;12.87;9.00;;;;;;;16.96;72.50;102147.13;5017290;28;20203;-82
2021/09/04 19:26:13;;;;;;;16.03;10.03;;;;;;;16.93;72.44;102157.44;5016626;28;20230;-83
2021/09/04 19:28:38;;;;;;;15.53;10.07;;;;;;;16.88;72.77;102157.38;5000241;28;20191;-83
2021/09/04 19:31:04;;;;;;;17.20;10.27;;;;;;;16.87;72.80;102149.59;5015951;28;20299;-81
2021/09/04 19:33:39;;;;;;;14.43;10.07;;;;;;;16.75;73.30;102157.16;5016824;28;20187;-82
2021/09/04 19:36:05;;;;;;;17.67;10.53;;;;;;;16.69;74.10;102159.66;5001480;28;20179;-82
2021/09/04 19:38:32;;;;;;;16.37;10.20;;;;;;;16.63;73.39;102157.81;5017882;28;20553;-82
2021/09/04 19:40:57;;;;;;;16.13;9.47;;;;;;;16.55;74.57;102162.03;5018299;28;20215;-82
2021/09/04 19:43:23;;;;;;;13.87;10.03;;;;;;;16.48;74.70;102162.75;5018333;28;20639;-80
2021/09/04 19:45:49;;;;;;;14.87;10.10;;;;;;;16.50;74.67;102160.19;5018772;28;20229;-82
2021/09/04 19:48:16;;;;;;;16.17;10.53;;;;;;;16.41;75.43;102166.09;4998532;28;20215;-82
2021/09/04 19:50:41;;;;;;;15.80;9.73;;;;;;;16.47;74.77;102165.31;5017588;28;20203;-83
2021/09/04 19:53:08;;;;;;;18.27;10.27;;;;;;;16.44;74.83;102166.13;5018682;28;20266;-83
2021/09/04 19:55:33;;;;;;;14.80;10.23;;;;;;;16.45;75.21;102172.19;5018577;28;20214;-83
2021/09/04 19:57:59;;;;;;;15.73;10.27;;;;;;;16.40;75.53;102173.84;5017724;28;20744;-83
2021/09/04 20:00:25;;;;;;;17.40;9.87;;;;;;;16.36;75.45;102179.75;5016155;28;20561;-81
2021/09/04 20:02:50;;;;;;;13.63;9.50;;;;;;;16.33;75.92;102182.28;5002074;28;20200;-84
2021/09/04 20:05:15;;;;;;;18.27;9.80;;;;;;;16.37;75.43;102187.53;5004226;28;20211;-82
2021/09/04 20:07:41;;;;;;;16.20;9.53;;;;;;;16.32;75.67;102177.94;4997216;28;20232;-82
2021/09/04 20:10:07;;;;;;;14.57;9.77;;;;;;;16.31;76.08;102176.22;4997638;28;20299;-82
2021/09/04 20:12:32;;;;;;;13.60;8.77;;;;;;;16.27;75.53;102185.66;4978862;28;20200;-82
2021/09/04 20:14:57;;;;;;;14.33;9.00;;;;;;;16.23;76.17;102186.44;4997190;28;20202;-83
2021/09/04 20:17:23;;;;;;;16.77;9.53;;;;;;;16.21;76.39;102189.84;5007573;28;20175;-82
2021/09/04 20:19:48;;;;;;;14.77;9.37;;;;;;;16.12;76.24;102185.34;5003891;28;20242;-83
2021/09/04 20:22:13;;;;;;;14.47;9.23;;;;;;;16.05;76.87;102182.63;5004591;28;20199;-82
2021/09/04 20:24:39;;;;;;;12.27;8.63;;;;;;;16.07;76.97;102186.97;5001850;28;20215;-83
2021/09/04 20:27:04;;;;;;;15.00;9.60;;;;;;;15.97;76.93;102190.22;5002020;28;20187;-81
2021/09/04 20:29:29;;;;;;;14.27;8.83;;;;;;;16.02;76.70;102187.75;5001415;28;20184;-82
2021/09/04 20:31:55;;;;;;;16.73;9.60;;;;;;;15.94;76.96;102189.31;5001388;28;20747;-83
2021/09/04 20:34:20;;;;;;;15.10;9.30;;;;;;;15.93;77.44;102193.59;5002943;28;20215;-81
2021/09/04 20:36:57;;;;;;;13.27;8.50;;;;;;;15.90;77.59;102190.97;5000481;28;20185;-81
2021/09/04 20:39:23;;;;;;;13.03;8.50;;;;;;;15.86;77.39;102189.16;5001542;28;20210;-81
2021/09/04 20:41:57;;;;;;;17.63;9.17;;;;;;;15.83;77.44;102191.69;4999391;28;20709;-82
2021/09/04 20:44:28;;;;;;;15.70;9.20;;;;;;;15.80;78.38;102196.78;4999184;28;20188;-82
2021/09/04 20:46:56;;;;;;;16.30;9.80;;;;;;;15.77;78.06;102193.28;4982081;28;20210;-79
2021/09/04 20:49:23;;;;;;;16.60;9.57;;;;;;;15.74;77.94;102185.47;4980044;28;20216;-83
2021/09/04 20:51:50;;;;;;;16.83;8.50;;;;;;;15.67;78.18;102192.22;4977889;28;20274;-81
2021/09/04 20:54:16;;;;;;;16.00;9.10;;;;;;;15.68;78.39;102199.13;4975266;28;20279;-82
2021/09/04 20:56:42;;;;;;;16.17;8.50;;;;;;;15.64;78.91;102201.59;4975411;28;20635;-80
2021/09/04 20:59:07;;;;;;;15.80;9.67;;;;;;;15.56;79.20;102204.03;4978240;28;20579;-79
2021/09/04 21:01:37;;;;;;;14.30;8.93;;;;;;;15.46;79.41;102199.53;4962794;28;20242;-80
2021/09/04 21:04:03;;;;;;;14.97;9.43;;;;;;;15.47;79.80;102197.81;4995191;28;20266;-81
2021/09/04 21:06:29;;;;;;;12.47;9.10;;;;;;;15.50;78.85;102198.75;4998922;28;20687;-81
2021/09/04 21:08:55;;;;;;;15.23;8.80;;;;;;;15.48;79.77;102205.56;5001291;28;20672;-82
2021/09/04 21:11:20;;;;;;;12.93;8.70;;;;;;;15.45;79.43;102209.81;5000242;28;20211;-83
2021/09/04 21:13:49;;;;;;;15.27;9.23;;;;;;;15.39;80.01;102210.56;4998883;28;20202;-79
2021/09/04 21:16:15;;;;;;;13.47;9.00;;;;;;;15.39;80.05;102208.00;4998962;28;20254;-81
2021/09/04 21:18:41;;;;;;;14.70;9.23;;;;;;;15.37;80.11;102211.38;4981256;28;20839;-81
2021/09/04 21:21:06;;;;;;;14.97;9.80;;;;;;;15.33;79.86;102212.09;4999045;28;20211;-80
2021/09/04 21:23:31;;;;;;;15.60;8.70;;;;;;;15.33;80.04;102218.13;4997871;28;20653;-81
2021/09/04 21:25:57;;;;;;;11.87;8.40;;;;;;;15.25;80.63;102224.84;5000947;28;20212;-81
2021/09/04 21:28:22;;;;;;;17.60;9.93;;;;;;;15.18;81.00;102222.06;4999171;28;20184;-79
2021/09/04 21:30:47;;;;;;;15.33;9.23;;;;;;;15.22;80.47;102223.88;4998837;28;20204;-82
2021/09/04 21:33:13;;;;;;;14.87;9.43;;;;;;;15.24;80.40;102223.06;4996743;28;20262;-83
2021/09/04 21:35:38;;;;;;;15.50;10.23;;;;;;;15.16;80.83;102226.34;4996876;28;20580;-82
2021/09/04 21:38:03;;;;;;;16.43;10.03;;;;;;;15.16;80.62;102236.66;4978703;28;20589;-82
2021/09/04 21:40:29;;;;;;;16.33;9.83;;;;;;;15.16;80.91;102231.50;4986993;28;20207;-82
2021/09/04 21:42:54;;;;;;;15.47;8.87;;;;;;;15.10;80.90;102227.06;4996118;28;20196;-82
2021/09/04 21:45:19;;;;;;;16.43;10.00;;;;;;;15.08;81.32;102231.31;4990899;28;20215;-82
2021/09/04 21:47:45;;;;;;;13.97;9.73;;;;;;;15.08;81.38;102236.47;4987385;28;20203;-82
2021/09/04 21:50:10;;;;;;;15.57;10.20;;;;;;;15.11;80.31;102236.53;4992409;28;20219;-80
2021/09/04 21:52:36;;;;;;;13.67;9.27;;;;;;;15.11;80.32;102236.53;5005754;28;20192;-84
2021/09/04 21:55:02;;;;;;;15.70;9.83;;;;;;;15.03;80.98;102248.41;5006840;28;20192;-84
2021/09/04 21:57:27;;;;;;;13.40;9.17;;;;;;;15.04;80.69;102251.84;4986271;28;20220;-84
2021/09/04 21:59:53;;;;;;;16.40;10.03;;;;;;;15.00;80.59;102248.31;4984945;28;20216;-81
2021/09/04 22:02:18;;;;;;;12.97;9.60;;;;;;;15.00;80.15;102250.00;4984165;28;20204;-84
2021/09/04 22:04:45;;;;;;;13.63;9.83;;;;;;;14.93;81.13;102251.59;4984814;28;20193;-82
2021/09/04 22:07:10;;;;;;;15.03;9.90;;;;;;;14.92;81.05;102249.84;4985292;28;20619;-82
2021/09/04 22:09:36;;;;;;;14.53;9.67;;;;;;;14.97;80.73;102247.38;4986252;28;20181;-81
2021/09/04 22:12:02;;;;;;;16.87;10.40;;;;;;;14.93;80.60;102250.72;4984230;28;20924;-84
2021/09/04 22:14:27;;;;;;;15.77;9.87;;;;;;;14.89;80.20;102260.09;4985571;28;20180;-79
2021/09/04 22:16:53;;;;;;;14.30;10.00;;;;;;;14.90;80.65;102261.84;4982830;28;20204;-80
2021/09/04 22:19:18;;;;;;;15.17;10.17;;;;;;;14.86;80.40;102257.44;4983316;28;20192;-80
2021/09/04 22:21:44;;;;;;;17.70;11.43;;;;;;;14.87;79.85;102266.06;4982084;28;20276;-82
2021/09/04 22:24:09;;;;;;;14.30;9.93;;;;;;;14.83;80.37;102266.81;4982748;28;20193;-79
2021/09/04 22:26:35;;;;;;;12.53;10.00;;;;;;;14.82;80.25;102270.22;4979484;28;20768;-81
2021/09/04 22:29:00;;;;;;;17.43;10.87;;;;;;;14.74;80.30;102275.16;4978318;28;20204;-81
2021/09/04 22:31:26;;;;;;;16.10;10.13;;;;;;;14.75;80.00;102282.09;4979550;28;20213;-84
2021/09/04 22:33:53;;;;;;;16.50;10.87;;;;;;;14.72;80.20;102274.28;4989117;28;20260;-81
2021/09/04 22:36:19;;;;;;;16.07;10.10;;;;;;;14.69;80.06;102278.47;4995863;28;20185;-82
2021/09/04 22:38:46;;;;;;;18.83;11.27;;;;;;;14.65;80.00;102274.06;4982077;28;20677;-82
2021/09/04 22:41:11;;;;;;;14.10;10.93;;;;;;;14.63;80.75;102276.59;4979526;28;20732;-82
2021/09/04 22:43:37;;;;;;;16.83;11.33;;;;;;;14.62;80.25;102277.44;4979637;28;20220;-81
2021/09/04 22:46:03;;;;;;;15.27;10.87;;;;;;;14.60;80.26;102278.25;4979666;28;20267;-82
2021/09/04 22:48:28;;;;;;;15.73;11.17;;;;;;;14.55;80.30;102278.09;4979033;28;20549;-79
2021/09/04 22:50:53;;;;;;;13.47;10.47;;;;;;;14.54;80.56;102276.38;4996947;28;20213;-81
2021/09/04 22:53:19;;;;;;;14.63;11.47;;;;;;;14.49;80.56;102285.69;4981492;28;20208;-83
2021/09/04 22:55:44;;;;;;;17.67;11.47;;;;;;;14.50;80.68;102290.00;4995365;28;20181;-82
2021/09/04 22:58:10;;;;;;;15.60;11.30;;;;;;;14.46;81.17;102279.59;4995514;28;20185;-79
2021/09/04 23:00:36;;;;;;;17.23;11.60;;;;;;;14.41;81.05;102289.75;4994965;28;20224;-81
2021/09/04 23:03:01;;;;;;;15.83;10.93;;;;;;;14.44;80.87;102287.28;4994692;28;21054;-81
2021/09/04 23:05:26;;;;;;;15.50;10.80;;;;;;;14.39;80.78;102286.28;4993038;28;20197;-82
2021/09/04 23:07:52;;;;;;;16.30;11.43;;;;;;;14.40;80.69;102284.56;4965872;28;20216;-81
2021/09/04 23:10:17;;;;;;;16.77;11.00;;;;;;;14.40;80.92;102287.13;4977976;28;20295;-80
2021/09/04 23:12:43;;;;;;;15.77;10.20;;;;;;;14.36;80.52;102295.63;5000992;28;20195;-82
2021/09/04 23:15:09;;;;;;;18.17;11.80;;;;;;;14.30;81.34;102292.88;4984123;28;20247;-81
2021/09/04 23:17:34;;;;;;;17.17;11.63;;;;;;;14.30;80.86;102295.44;5001582;28;20264;-81
2021/09/04 23:20:00;;;;;;;17.47;11.10;;;;;;;14.29;81.34;102294.59;5000842;28;20196;-81
2021/09/04 23:22:26;;;;;;;16.07;10.63;;;;;;;14.26;81.06;102299.66;4985913;28;20193;-82
2021/09/04 23:24:51;;;;;;;18.23;10.90;;;;;;;14.20;81.85;102301.16;4979246;28;20227;-83
2021/09/04 23:27:16;;;;;;;16.87;11.40;;;;;;;14.26;81.17;102306.50;4978538;28;20219;-82
2021/09/04 23:29:42;;;;;;;17.27;11.40;;;;;;;14.21;81.10;102308.97;4980226;28;20690;-83
2021/09/04 23:32:08;;;;;;;17.47;12.10;;;;;;;14.21;80.99;102302.91;4979590;28;20197;-80
2021/09/04 23:34:34;;;;;;;15.90;10.90;;;;;;;14.17;81.41;102301.06;4995328;28;20676;-79
2021/09/04 23:37:03;;;;;;;16.47;11.20;;;;;;;14.17;81.02;102308.78;4999345;28;20258;-80
2021/09/04 23:39:28;;;;;;;15.43;10.97;;;;;;;14.11;81.58;102304.34;4997244;28;20192;-80
2021/09/04 23:41:54;;;;;;;16.00;10.37;;;;;;;14.10;81.68;102304.31;4999622;28;20653;-80
2021/09/04 23:44:19;;;;;;;16.50;11.17;;;;;;;14.12;80.70;102303.50;4996243;28;20267;-81
2021/09/04 23:46:44;;;;;;;13.43;10.50;;;;;;;14.05;81.66;102300.72;4996661;28;20645;-81
2021/09/04 23:49:10;;;;;;;17.33;11.13;;;;;;;14.05;81.40;102301.56;4998168;28;20612;-79
2021/09/04 23:51:35;;;;;;;16.63;10.90;;;;;;;14.04;81.43;102305.00;4998076;28;20216;-80
2021/09/04 23:54:00;;;;;;;16.23;10.73;;;;;;;13.99;81.25;102297.97;5007119;28;20207;-82
2021/09/04 23:56:26;;;;;;;16.27;11.17;;;;;;;14.01;81.84;102298.88;5006941;28;20195;-81
2021/09/04 23:58:51;;;;;;;18.40;10.87;;;;;;;13.99;81.71;102292.84;5007720;28;20191;-80
